Time;durP1;ratioP1;P1;durP2;ratioP2;P2;SDS_P1;SDS_P2;PMS_P1;PMS_P2;Temp;Humidity;BMP_temperature;BMP_pressure;BME280_temperature;BME280_humidity;BME280_pressure;Samples;Min_cycle;Max_cycle;Signal;HPM_P1;HPM_P2
2022/03/03 00:02:17;;;;;;;83.10;32.40;;;;;;;-1.26;67.78;98733.50;106139;1277;23922;-70
2022/03/03 00:04:43;;;;;;;76.10;32.90;;;;;;;-1.27;67.99;98733.98;106012;1277;138204;-70
2022/03/03 00:07:10;;;;;;;77.00;34.70;;;;;;;-1.27;68.05;98728.69;106105;1277;24230;-70
2022/03/03 00:09:36;;;;;;;81.90;33.60;;;;;;;-1.26;68.25;98727.52;106090;1277;25392;-70
2022/03/03 00:12:02;;;;;;;82.70;34.50;;;;;;;-1.25;67.87;98723.59;105804;1277;138923;-69
2022/03/03 00:14:29;;;;;;;80.70;34.50;;;;;;;-1.20;67.96;98725.42;106303;1277;22973;-72
2022/03/03 00:16:55;;;;;;;76.10;34.30;;;;;;;-1.17;67.83;98728.41;105932;1277;137725;-72
2022/03/03 00:19:21;;;;;;;86.10;36.50;;;;;;;-1.13;67.95;98723.95;106108;1277;24292;-72
2022/03/03 00:21:48;;;;;;;81.10;34.20;;;;;;;-1.11;68.07;98718.93;105786;1277;138033;-70
2022/03/03 00:24:14;;;;;;;82.10;35.90;;;;;;;-1.09;68.29;98721.41;106096;1277;22659;-70
2022/03/03 00:26:40;;;;;;;91.60;36.20;;;;;;;-1.08;67.94;98716.67;106076;1277;24385;-70
2022/03/03 00:29:07;;;;;;;85.90;37.50;;;;;;;-1.08;67.90;98720.36;106164;1277;138202;-69
2022/03/03 00:31:33;;;;;;;86.90;37.80;;;;;;;-1.08;67.65;98721.59;106150;1277;22660;-69
2022/03/03 00:33:59;;;;;;;90.30;36.50;;;;;;;-1.08;67.64;98721.06;105858;1277;137990;-69
2022/03/03 00:36:27;;;;;;;85.80;35.40;;;;;;;-1.08;67.65;98716.65;106110;1277;25490;-70
2022/03/03 00:38:53;;;;;;;86.20;34.70;;;;;;;-1.10;67.73;98712.39;106181;1277;25400;-70
2022/03/03 00:41:20;;;;;;;84.20;36.60;;;;;;;-1.11;68.13;98704.44;105962;1277;137838;-70
2022/03/03 00:43:46;;;;;;;92.90;36.10;;;;;;;-1.12;68.22;98700.56;106019;1277;22560;-69
2022/03/03 00:46:13;;;;;;;89.90;36.60;;;;;;;-1.14;68.29;98702.27;106138;1277;137915;-70
2022/03/03 00:48:39;;;;;;;91.60;36.40;;;;;;;-1.14;68.34;98706.44;106238;1276;24376;-70
2022/03/03 00:51:08;;;;;;;83.60;37.00;;;;;;;-1.15;68.39;98704.58;106045;1277;24437;-70
2022/03/03 00:53:36;;;;;;;94.00;38.00;;;;;;;-1.16;68.47;98696.12;105779;1277;138376;-69
2022/03/03 00:56:03;;;;;;;85.80;36.40;;;;;;;-1.18;68.50;98697.59;106464;1277;22602;-69
2022/03/03 00:58:29;;;;;;;90.10;37.10;;;;;;;-1.20;68.52;98694.58;106051;1277;138043;-69
2022/03/03 01:00:55;;;;;;;94.20;39.70;;;;;;;-1.22;68.55;98690.73;106238;1277;22550;-70
2022/03/03 01:03:22;;;;;;;90.70;39.70;;;;;;;-1.22;68.75;98684.35;105993;1277;23359;-70
2022/03/03 01:05:48;;;;;;;96.70;40.20;;;;;;;-1.20;68.73;98676.04;105910;1275;138629;-69
2022/03/03 01:08:15;;;;;;;99.40;38.90;;;;;;;-1.16;68.90;98675.77;106234;1277;24656;-69
2022/03/03 01:10:41;;;;;;;105.10;41.30;;;;;;;-1.13;69.11;98675.85;106094;1277;137961;-69
2022/03/03 01:13:07;;;;;;;111.70;42.80;;;;;;;-1.09;69.02;98674.37;106055;1277;22546;-69
2022/03/03 01:15:33;;;;;;;94.60;40.90;;;;;;;-1.06;69.21;98680.23;106052;1277;24296;-69
2022/03/03 01:18:00;;;;;;;108.20;46.10;;;;;;;-1.03;69.01;98677.80;105887;1277;137906;-69
2022/03/03 01:20:27;;;;;;;101.60;42.90;;;;;;;-1.02;68.86;98679.57;106159;1277;22553;-69
2022/03/03 01:22:54;;;;;;;103.30;43.20;;;;;;;-1.01;68.55;98678.30;106004;1277;138108;-70
2022/03/03 01:25:21;;;;;;;107.40;43.00;;;;;;;-1.02;68.60;98679.77;106118;1278;22574;-70
2022/03/03 01:27:47;;;;;;;98.20;41.50;;;;;;;-1.03;68.53;98675.96;106075;1277;23927;-70
2022/03/03 01:30:13;;;;;;;110.60;45.40;;;;;;;-1.04;68.89;98675.59;105668;1280;137986;-70
2022/03/03 01:32:40;;;;;;;108.00;44.40;;;;;;;-1.06;68.86;98675.25;105825;1280;23109;-70
2022/03/03 01:35:06;;;;;;;104.20;42.10;;;;;;;-1.07;69.02;98670.52;105810;1280;138096;-70
2022/03/03 01:37:32;;;;;;;96.10;41.00;;;;;;;-1.08;68.87;98667.27;106170;1277;22563;-70
2022/03/03 01:39:59;;;;;;;93.40;40.40;;;;;;;-1.09;68.74;98666.89;106061;1277;138740;-70
2022/03/03 01:42:25;;;;;;;102.70;40.40;;;;;;;-1.11;69.09;98663.02;106167;1277;22576;-70
2022/03/03 01:44:52;;;;;;;96.80;40.50;;;;;;;-1.13;68.91;98659.61;106032;1277;24325;-70
2022/03/03 01:47:23;;;;;;;93.50;40.70;;;;;;;-1.14;69.08;98658.67;106015;1277;138238;-70
2022/03/03 01:49:52;;;;;;;96.70;44.50;;;;;;;-1.16;69.10;98653.51;106001;1277;23920;-70
2022/03/03 01:52:19;;;;;;;103.90;43.10;;;;;;;-1.17;69.15;98655.55;105838;1280;138339;-70
2022/03/03 01:54:46;;;;;;;100.30;41.90;;;;;;;-1.15;69.27;98656.40;106158;1277;24266;-70
2022/03/03 01:57:17;;;;;;;100.70;41.30;;;;;;;-1.12;69.34;98655.73;106281;1277;22544;-70
2022/03/03 01:59:44;;;;;;;102.10;43.80;;;;;;;-1.07;69.23;98647.63;106125;1277;138208;-70
2022/03/03 02:02:14;;;;;;;97.80;40.80;;;;;;;-1.04;69.36;98644.30;106159;1277;22544;-70
2022/03/03 02:04:41;;;;;;;100.30;41.30;;;;;;;-1.04;69.35;98641.96;106198;1277;137787;-70
2022/03/03 02:07:07;;;;;;;101.20;41.80;;;;;;;-1.05;69.41;98640.38;106198;1277;24267;-70
2022/03/03 02:09:34;;;;;;;94.00;42.40;;;;;;;-1.05;69.37;98643.42;105909;1278;24296;-70
2022/03/03 02:12:02;;;;;;;106.60;41.20;;;;;;;-1.06;69.26;98643.09;105889;1277;137772;-70
2022/03/03 02:14:29;;;;;;;92.10;40.30;;;;;;;-1.09;69.33;98646.89;105962;1277;25310;-70
2022/03/03 02:16:55;;;;;;;93.70;40.20;;;;;;;-1.10;69.18;98646.81;106012;1277;138198;-70
2022/03/03 02:19:21;;;;;;;96.60;41.50;;;;;;;-1.11;69.30;98651.03;106018;1277;25460;-70
2022/03/03 02:21:54;;;;;;;92.30;39.60;;;;;;;-1.13;69.54;98645.41;106314;1277;22706;-70
2022/03/03 02:24:21;;;;;;;99.60;40.40;;;;;;;-1.16;69.44;98641.70;105960;1277;137621;-70
2022/03/03 02:26:47;;;;;;;98.60;41.00;;;;;;;-1.18;69.66;98636.80;106138;1277;25434;-70
2022/03/03 02:29:14;;;;;;;105.10;42.10;;;;;;;-1.20;69.77;98633.89;105850;1277;137951;-70
2022/03/03 02:31:41;;;;;;;107.50;43.30;;;;;;;-1.24;69.81;98631.61;106144;1277;25270;-70
2022/03/03 02:34:08;;;;;;;101.30;42.90;;;;;;;-1.25;69.96;98629.16;106045;1278;138521;-71
2022/03/03 02:36:34;;;;;;;99.90;41.00;;;;;;;-1.23;70.09;98628.77;106081;1277;22551;-70
2022/03/03 02:39:04;;;;;;;99.60;40.60;;;;;;;-1.20;70.06;98628.70;106113;1277;24299;-70
2022/03/03 02:41:30;;;;;;;96.80;40.80;;;;;;;-1.19;70.39;98632.27;105986;1277;138120;-70
2022/03/03 02:43:58;;;;;;;103.20;42.50;;;;;;;-1.17;70.36;98623.86;105980;1277;25251;-71
2022/03/03 02:46:25;;;;;;;92.70;40.10;;;;;;;-1.15;70.40;98622.04;106172;1277;138643;-70
2022/03/03 02:48:51;;;;;;;101.50;40.70;;;;;;;-1.14;70.36;98619.82;106257;1277;22561;-70
2022/03/03 02:51:17;;;;;;;103.30;41.10;;;;;;;-1.14;70.37;98617.86;105908;1277;22882;-70
2022/03/03 02:53:44;;;;;;;99.00;40.50;;;;;;;-1.15;70.19;98615.46;106077;1277;138045;-72
2022/03/03 02:56:11;;;;;;;95.40;39.80;;;;;;;-1.15;70.15;98612.86;106109;1277;22698;-72
2022/03/03 02:58:37;;;;;;;98.10;38.70;;;;;;;-1.17;70.22;98611.44;106071;1277;138523;-71
2022/03/03 03:01:05;;;;;;;97.00;39.80;;;;;;;-1.20;70.21;98607.15;106153;1278;25382;-71
2022/03/03 03:03:32;;;;;;;103.40;40.40;;;;;;;-1.23;69.88;98602.98;105983;1277;24264;-71
2022/03/03 03:05:58;;;;;;;103.70;39.50;;;;;;;-1.27;69.97;98597.67;105813;1277;138388;-73
2022/03/03 03:08:25;;;;;;;87.40;38.80;;;;;;;-1.30;69.86;98599.30;106075;1277;22568;-71
2022/03/03 03:10:51;;;;;;;94.20;39.70;;;;;;;-1.34;69.59;98599.54;105942;1280;138391;-70
2022/03/03 03:13:18;;;;;;;89.40;39.30;;;;;;;-1.39;69.72;98596.30;106055;1280;24261;-70
2022/03/03 03:15:45;;;;;;;93.40;39.80;;;;;;;-1.43;69.83;98599.59;105806;1277;22534;-73
2022/03/03 03:18:15;;;;;;;87.10;38.40;;;;;;;-1.47;69.67;98606.50;105672;1277;138421;-72
2022/03/03 03:20:42;;;;;;;;;;;;;;;-1.51;69.88;98607.46;105730;1278;22545;-71
2022/03/03 03:23:10;;;;;;;94.00;37.50;;;;;;;-1.54;69.85;98604.48;105985;1277;124022;-72
2022/03/03 03:25:43;;;;;;;97.50;39.80;;;;;;;-1.57;70.09;98601.08;106128;1277;22600;-72
2022/03/03 03:28:17;;;;;;;94.00;39.80;;;;;;;-1.58;70.00;98603.89;105899;1277;137962;-72
2022/03/03 03:30:44;;;;;;;90.20;38.00;;;;;;;-1.61;70.18;98609.20;105928;1277;22598;-69
2022/03/03 03:33:11;;;;;;;95.50;39.10;;;;;;;-1.65;70.04;98606.42;105791;1280;23235;-70
2022/03/03 03:35:39;;;;;;;89.60;37.40;;;;;;;-1.71;70.13;98604.88;105992;1277;137773;-70
2022/03/03 03:38:06;;;;;;;93.10;39.50;;;;;;;-1.75;70.30;98606.03;105799;1280;24175;-70
2022/03/03 03:40:33;;;;;;;88.00;38.40;;;;;;;-1.81;70.46;98608.59;105672;1277;138255;-70
2022/03/03 03:42:59;;;;;;;93.40;38.50;;;;;;;-1.87;70.64;98607.86;105905;1277;25359;-70
2022/03/03 03:45:25;;;;;;;96.70;41.50;;;;;;;-1.95;70.71;98609.94;105935;1277;25357;-70
2022/03/03 03:47:52;;;;;;;89.10;38.30;;;;;;;-2.02;70.95;98611.05;105626;1280;138112;-70
2022/03/03 03:50:18;;;;;;;85.90;38.40;;;;;;;-2.07;71.23;98611.35;105857;1278;25319;-70
2022/03/03 03:52:45;;;;;;;90.90;39.10;;;;;;;-2.09;71.13;98609.61;105804;1277;138436;-70
2022/03/03 03:55:12;;;;;;;92.60;39.20;;;;;;;-2.11;71.73;98610.84;105966;1277;22686;-70
2022/03/03 03:57:39;;;;;;;89.40;37.50;;;;;;;-2.12;71.56;98611.50;106042;1277;25489;-70
2022/03/03 04:00:10;;;;;;;90.60;39.50;;;;;;;-2.15;71.80;98609.52;105875;1277;138482;-70
2022/03/03 04:02:40;;;;;;;98.10;42.40;;;;;;;-2.18;72.08;98605.19;106147;1278;25336;-70
2022/03/03 04:05:07;;;;;;;96.20;42.40;;;;;;;-2.21;72.31;98601.73;105758;1278;137801;-70
2022/03/03 04:07:33;;;;;;;93.40;40.80;;;;;;;-2.24;72.27;98591.81;105857;1280;25331;-70
2022/03/03 04:09:59;;;;;;;97.70;42.40;;;;;;;-2.30;72.20;98585.29;105606;1280;138004;-70
2022/03/03 04:12:25;;;;;;;89.90;41.40;;;;;;;-2.34;72.33;98580.77;106008;1277;22580;-70
2022/03/03 04:14:52;;;;;;;94.30;42.20;;;;;;;-2.39;72.46;98578.58;105855;1277;24380;-70
2022/03/03 04:17:18;;;;;;;96.40;41.90;;;;;;;-2.41;72.55;98574.70;105792;1278;139430;-70
2022/03/03 04:19:45;;;;;;;93.00;39.80;;;;;;;-2.41;72.68;98566.36;105963;1277;24383;-70
2022/03/03 04:22:11;;;;;;;103.70;41.10;;;;;;;-2.42;72.99;98568.00;105828;1277;142643;-70
2022/03/03 04:24:37;;;;;;;93.10;40.30;;;;;;;-2.45;72.80;98564.77;105973;1278;22716;-70
2022/03/03 04:27:04;;;;;;;96.20;40.30;;;;;;;-2.48;73.08;98569.86;105760;1280;22546;-70
2022/03/03 04:29:31;;;;;;;84.90;39.00;;;;;;;-2.48;73.14;98568.70;105779;1277;137794;-70
2022/03/03 04:31:58;;;;;;;93.20;39.80;;;;;;;-2.50;72.92;98567.06;105782;1278;24440;-70
2022/03/03 04:34:28;;;;;;;89.30;39.30;;;;;;;-2.52;72.86;98570.45;105973;1277;138274;-70
2022/03/03 04:36:54;;;;;;;91.80;38.10;;;;;;;-2.55;72.74;98564.27;105938;1277;24078;-71
2022/03/03 04:39:21;;;;;;;81.00;37.40;;;;;;;-2.59;72.64;98561.73;106068;1277;25302;-70
2022/03/03 04:41:47;;;;;;;84.30;38.10;;;;;;;-2.63;72.74;98559.88;105676;1280;138148;-70
2022/03/03 04:44:13;;;;;;;82.10;37.50;;;;;;;-2.67;72.51;98561.00;106080;1280;23648;-70
2022/03/03 04:46:39;;;;;;;74.30;34.70;;;;;;;-2.69;72.91;98560.54;105868;1277;138875;-70
2022/03/03 04:49:07;;;;;;;84.50;38.00;;;;;;;-2.71;72.84;98559.82;106004;1277;24149;-72
2022/03/03 04:51:36;;;;;;;88.30;37.00;;;;;;;-2.73;72.97;98559.70;106026;1277;25303;-70
2022/03/03 04:54:08;;;;;;;81.80;36.80;;;;;;;-2.76;72.88;98560.31;105882;1278;137967;-70
2022/03/03 04:56:35;;;;;;;89.60;36.90;;;;;;;-2.78;73.60;98558.05;105803;1281;22575;-71
2022/03/03 04:59:02;;;;;;;92.00;39.50;;;;;;;-2.80;73.08;98556.33;105863;1278;137980;-70
2022/03/03 05:01:29;;;;;;;92.90;37.70;;;;;;;-2.82;73.34;98558.48;105898;1277;24259;-70
2022/03/03 05:03:55;;;;;;;83.00;37.50;;;;;;;-2.84;73.55;98558.50;105981;1278;22610;-71
2022/03/03 05:06:22;;;;;;;88.10;38.10;;;;;;;-2.88;73.13;98553.71;105722;1278;138201;-71
2022/03/03 05:08:48;;;;;;;88.20;38.10;;;;;;;-2.93;73.25;98550.88;105946;1278;25250;-71
2022/03/03 05:11:14;;;;;;;94.60;42.20;;;;;;;-2.97;73.00;98550.59;106026;1277;138936;-71
2022/03/03 05:13:40;;;;;;;90.80;39.50;;;;;;;-3.02;73.43;98547.50;106082;1277;24303;-71
2022/03/03 05:16:07;;;;;;;82.30;37.90;;;;;;;-3.04;73.69;98546.15;105809;1278;139288;-70
2022/03/03 05:18:33;;;;;;;90.80;38.70;;;;;;;-3.03;73.66;98544.33;105912;1278;22637;-70
2022/03/03 05:21:00;;;;;;;90.80;39.50;;;;;;;-3.03;73.74;98549.41;105772;1278;22594;-70
2022/03/03 05:23:26;;;;;;;86.90;37.30;;;;;;;-3.03;73.92;98547.14;105817;1277;143257;-70
2022/03/03 05:25:52;;;;;;;85.90;37.10;;;;;;;-3.03;73.82;98548.30;105948;1277;25391;-70
2022/03/03 05:28:19;;;;;;;88.20;37.90;;;;;;;-3.02;73.96;98546.69;105694;1278;137895;-70
2022/03/03 05:30:45;;;;;;;86.80;36.80;;;;;;;-3.03;74.14;98551.03;105938;1277;22541;-70
2022/03/03 05:33:11;;;;;;;90.50;37.60;;;;;;;-3.07;73.66;98550.13;106034;1277;23491;-70
2022/03/03 05:35:41;;;;;;;99.90;41.10;;;;;;;-3.09;73.91;98557.87;105819;1277;138515;-70
2022/03/03 05:38:09;;;;;;;97.10;42.50;;;;;;;-3.13;73.70;98560.00;105934;1277;25310;-70
2022/03/03 05:40:35;;;;;;;91.40;39.40;;;;;;;-3.16;73.63;98561.92;105647;1278;139476;-70
2022/03/03 05:43:02;;;;;;;90.00;40.10;;;;;;;-3.17;73.29;98563.30;105848;1278;25317;-70
2022/03/03 05:45:43;;;;;;;90.90;38.70;;;;;;;-3.18;73.40;98565.71;106006;1277;24757;-70
2022/03/03 05:48:10;;;;;;;93.70;40.90;;;;;;;-3.20;73.66;98564.98;105836;1277;137947;-70
2022/03/03 05:50:37;;;;;;;91.00;38.40;;;;;;;-3.20;73.83;98567.17;105604;1278;22556;-70
2022/03/03 05:53:03;;;;;;;87.40;39.30;;;;;;;-3.21;73.96;98562.64;105752;1278;137906;-70
2022/03/03 05:55:31;;;;;;;92.30;39.60;;;;;;;-3.21;74.06;98559.07;105987;1277;22704;-70
2022/03/03 05:58:17;;;;;;;101.20;41.00;;;;;;;-3.23;73.95;98558.19;105970;1277;138576;-72
2022/03/03 06:00:49;;;;;;;101.80;43.10;;;;;;;-3.25;73.84;98557.09;105928;1277;24216;-70
2022/03/03 06:03:18;;;;;;;103.80;43.80;;;;;;;-3.28;73.77;98552.63;105540;1281;24233;-70
2022/03/03 06:06:04;;;;;;;88.50;42.30;;;;;;;-3.29;73.87;98554.98;105913;1277;138826;-70
2022/03/03 06:08:41;;;;;;;94.70;43.40;;;;;;;-3.28;73.76;98556.48;105978;1277;22867;-70
2022/03/03 06:11:20;;;;;;;105.10;43.80;;;;;;;-3.26;73.59;98554.58;105468;1281;138168;-70
2022/03/03 06:13:48;;;;;;;100.80;42.00;;;;;;;-3.27;73.92;98555.13;105884;1277;25313;-70
2022/03/03 06:16:19;;;;;;;97.10;42.40;;;;;;;-3.28;73.89;98552.80;105753;1277;138284;-70
2022/03/03 06:18:47;;;;;;;96.80;44.50;;;;;;;-3.32;73.58;98548.54;105536;1278;22694;-70
2022/03/03 06:21:17;;;;;;;108.20;43.10;;;;;;;-3.35;73.79;98556.15;105966;1277;22569;-70
2022/03/03 06:23:44;;;;;;;100.60;44.30;;;;;;;-3.37;73.86;98556.19;105500;1278;138367;-70
2022/03/03 06:26:15;;;;;;;104.90;45.40;;;;;;;-3.38;73.66;98551.69;105878;1278;23367;-70
2022/03/03 06:28:41;;;;;;;99.30;43.30;;;;;;;-3.38;73.57;98549.23;105742;1277;138600;-70
2022/03/03 06:31:08;;;;;;;96.80;42.90;;;;;;;-3.39;73.85;98549.95;105893;1277;22637;-70
2022/03/03 06:33:35;;;;;;;97.20;43.20;;;;;;;-3.37;74.04;98544.31;106024;1277;22544;-69
2022/03/03 06:36:02;;;;;;;102.10;43.40;;;;;;;-3.35;73.95;98547.24;105481;1278;138824;-70
2022/03/03 06:38:29;;;;;;;106.10;42.70;;;;;;;-3.32;74.02;98550.52;105638;1281;24490;-70
2022/03/03 06:40:57;;;;;;;107.40;44.30;;;;;;;-3.30;73.76;98551.91;105849;1277;137899;-70
2022/03/03 06:43:26;;;;;;;116.10;44.90;;;;;;;-3.28;74.07;98552.66;105955;1277;22684;-70
2022/03/03 06:45:52;;;;;;;105.10;43.90;;;;;;;-3.28;74.01;98557.17;105937;1277;22685;-70
2022/03/03 06:48:19;;;;;;;105.00;46.00;;;;;;;-3.28;74.06;98553.32;106142;1277;138670;-70
2022/03/03 06:50:50;;;;;;;97.80;43.90;;;;;;;-3.28;73.74;98556.71;106245;1277;22602;-70
2022/03/03 06:53:20;;;;;;;109.80;46.60;;;;;;;-3.29;73.77;98555.55;106205;1277;138124;-72
2022/03/03 06:56:07;;;;;;;105.70;46.40;;;;;;;-3.28;73.51;98558.15;105914;1277;22566;-71
2022/03/03 06:58:35;;;;;;;111.20;46.60;;;;;;;-3.26;73.51;98560.25;106109;1277;139078;-71
2022/03/03 07:01:12;;;;;;;115.30;46.50;;;;;;;-3.23;73.40;98561.85;106216;1277;24296;-71
2022/03/03 07:03:42;;;;;;;110.10;45.70;;;;;;;-3.15;73.69;98562.17;106153;1277;23548;-71
2022/03/03 07:06:09;;;;;;;121.60;46.40;;;;;;;-3.08;73.53;98560.08;106396;1277;138121;-71
2022/03/03 07:08:35;;;;;;;114.20;45.40;;;;;;;-3.02;73.61;98555.71;106108;1280;25579;-71
2022/03/03 07:11:02;;;;;;;108.30;45.60;;;;;;;-2.96;73.35;98551.16;106044;1277;138037;-71
2022/03/03 07:13:28;;;;;;;127.40;48.40;;;;;;;-2.91;72.90;98551.73;106184;1277;25284;-70
2022/03/03 07:16:14;;;;;;;108.50;44.90;;;;;;;-2.86;73.00;98552.84;106249;1278;22587;-71
2022/03/03 07:18:43;;;;;;;105.50;44.90;;;;;;;-2.80;72.81;98555.84;106367;1277;137915;-71
2022/03/03 07:21:47;;;;;;;118.70;44.10;;;;;;;-2.75;72.81;98554.68;106000;1277;22699;-71
2022/03/03 07:24:30;;;;;;;102.70;41.50;;;;;;;-2.67;72.75;98553.14;106134;1277;138358;-71
2022/03/03 07:27:04;;;;;;;99.10;42.80;;;;;;;-2.59;72.69;98553.91;105972;1278;24225;-71
2022/03/03 07:29:33;;;;;;;97.30;42.00;;;;;;;-2.47;72.79;98550.44;105928;1277;138641;-70
2022/03/03 07:32:05;;;;;;;102.00;42.60;;;;;;;-2.36;72.58;98544.45;106367;1277;22719;-71
2022/03/03 07:34:34;;;;;;;100.00;41.80;;;;;;;-2.24;71.98;98542.54;106168;1277;138909;-71
2022/03/03 07:37:10;;;;;;;93.50;39.40;;;;;;;-2.13;72.18;98543.87;106726;1277;22560;-71
2022/03/03 07:39:45;;;;;;;94.40;40.90;;;;;;;-2.02;71.92;98541.51;106237;1278;24300;-71
2022/03/03 07:42:17;;;;;;;100.20;40.80;;;;;;;-1.92;71.82;98542.56;106156;1277;137764;-71
2022/03/03 07:44:46;;;;;;;104.30;43.00;;;;;;;-1.81;71.68;98538.13;106461;1277;25524;-70
2022/03/03 07:47:13;;;;;;;90.20;42.60;;;;;;;-1.70;71.49;98534.34;106293;1277;137959;-71
2022/03/03 07:49:40;;;;;;;97.30;40.40;;;;;;;-1.61;71.27;98533.02;106116;1277;25317;-70
2022/03/03 07:52:08;;;;;;;100.70;43.40;;;;;;;-1.53;70.74;98531.39;106323;1277;24420;-70
2022/03/03 07:54:35;;;;;;;89.00;38.70;;;;;;;-1.43;70.41;98531.09;106213;1277;138312;-72
2022/03/03 07:57:02;;;;;;;95.20;39.80;;;;;;;-1.34;70.29;98530.23;106613;1276;25266;-72
2022/03/03 07:59:34;;;;;;;81.00;34.80;;;;;;;-1.22;70.32;98531.13;106126;1277;137775;-72
2022/03/03 08:02:04;;;;;;;98.00;39.50;;;;;;;-1.08;70.25;98530.34;106410;1277;22538;-72
2022/03/03 08:04:31;;;;;;;95.10;40.80;;;;;;;-0.98;69.97;98533.80;106024;1277;138804;-70
2022/03/03 08:07:08;;;;;;;82.30;37.40;;;;;;;-0.91;69.48;98531.41;106480;1277;24500;-70
2022/03/03 08:09:39;;;;;;;86.00;38.00;;;;;;;-0.84;69.17;98530.44;106256;1277;25502;-70
2022/03/03 08:12:21;;;;;;;82.10;35.90;;;;;;;-0.76;69.05;98530.02;105953;1277;138510;-70
2022/03/03 08:14:49;;;;;;;94.90;39.40;;;;;;;-0.70;68.68;98525.92;105957;1278;22566;-70
2022/03/03 08:17:16;;;;;;;82.30;36.90;;;;;;;-0.64;68.34;98525.55;105987;1277;138505;-70
2022/03/03 08:19:44;;;;;;;88.20;40.10;;;;;;;-0.57;68.75;98526.63;106205;1277;22653;-70
2022/03/03 08:22:14;;;;;;;78.20;34.60;;;;;;;-0.49;68.26;98528.08;106032;1277;22597;-70
2022/03/03 08:24:44;;;;;;;62.40;29.50;;;;;;;-0.42;67.97;98527.94;105824;1278;137859;-70
2022/03/03 08:27:12;;;;;;;73.30;34.30;;;;;;;-0.37;67.54;98527.39;105978;1278;22579;-70
2022/03/03 08:29:39;;;;;;;82.70;35.20;;;;;;;-0.33;67.48;98520.12;105962;1277;138210;-71
2022/03/03 08:32:11;;;;;;;90.80;38.50;;;;;;;-0.29;67.51;98515.95;105991;1277;25263;-70
2022/03/03 08:35:11;;;;;;;87.20;37.60;;;;;;;-0.21;67.74;98516.14;106249;1277;139295;-79
2022/03/03 08:37:41;;;;;;;78.70;35.80;;;;;;;-0.08;67.04;98515.52;105944;1277;24370;-71
2022/03/03 08:40:09;;;;;;;;;;;;;;;0.02;66.79;98516.51;106960;1277;22536;-69
2022/03/03 08:42:49;;;;;;;96.20;41.40;;;;;;;0.17;67.00;98511.64;106734;1277;124044;-70
2022/03/03 08:45:19;;;;;;;92.50;40.10;;;;;;;0.34;66.53;98508.93;106456;1277;23143;-70
2022/03/03 08:47:59;;;;;;;89.70;40.80;;;;;;;0.49;66.01;98510.96;106357;1277;137695;-70
2022/03/03 08:50:27;;;;;;;89.20;39.00;;;;;;;0.62;65.88;98507.69;106373;1277;22611;-70
2022/03/03 08:52:55;;;;;;;78.60;36.40;;;;;;;0.72;65.37;98506.42;106355;1278;137938;-70
2022/03/03 08:55:23;;;;;;;83.50;37.30;;;;;;;0.83;65.00;98502.48;106802;1277;22640;-70
2022/03/03 08:57:54;;;;;;;85.10;38.20;;;;;;;0.96;65.02;98501.41;106604;1277;22688;-70
2022/03/03 09:00:21;;;;;;;90.50;40.10;;;;;;;1.08;64.92;98505.64;106382;1277;138169;-70
2022/03/03 09:02:48;;;;;;;87.60;38.60;;;;;;;1.19;64.44;98502.54;106346;1277;447693;-72
2022/03/03 09:05:32;;;;;;;95.50;39.60;;;;;;;1.29;64.33;98502.70;106461;1277;138007;-70
2022/03/03 09:07:59;;;;;;;88.20;41.50;;;;;;;1.38;63.96;98503.67;106494;1278;22548;-70
2022/03/03 09:10:26;;;;;;;98.40;43.40;;;;;;;1.45;63.83;98499.60;106566;1277;137878;-70
2022/03/03 09:12:52;;;;;;;73.40;31.10;;;;;;;1.53;63.52;98498.97;106523;1277;24322;-70
2022/03/03 09:15:18;;;;;;;87.30;41.20;;;;;;;1.67;63.46;98497.06;106105;1277;22702;-72
2022/03/03 09:17:45;;;;;;;76.00;34.80;;;;;;;1.78;62.79;98495.28;106115;1278;137868;-70
2022/03/03 09:20:13;;;;;;;60.50;26.90;;;;;;;1.88;61.96;98490.08;106110;1277;22608;-70
2022/03/03 09:22:46;;;;;;;60.30;27.80;;;;;;;1.96;61.21;98487.69;106196;1278;138864;-70
2022/03/03 09:25:13;;;;;;;60.60;28.50;;;;;;;2.03;60.48;98483.60;106157;1277;24270;-70
2022/03/03 09:27:40;;;;;;;55.70;26.60;;;;;;;2.12;60.03;98476.59;106080;1277;26545;-72
2022/03/03 09:30:08;;;;;;;62.30;30.50;;;;;;;2.19;59.83;98474.42;105971;1277;137714;-70
2022/03/03 09:32:35;;;;;;;61.90;31.00;;;;;;;2.27;59.68;98476.33;106311;1277;25312;-70
2022/03/03 09:35:04;;;;;;;63.40;31.00;;;;;;;2.34;59.36;98472.08;106168;1275;137987;-71
2022/03/03 09:37:31;;;;;;;74.90;33.20;;;;;;;2.41;59.01;98469.10;106653;1277;22548;-70
2022/03/03 09:39:58;;;;;;;62.70;28.30;;;;;;;2.44;58.96;98469.67;106293;1277;24428;-71
2022/03/03 09:42:31;;;;;;;72.40;33.30;;;;;;;2.45;58.62;98470.67;106123;1277;137800;-71
2022/03/03 09:44:59;;;;;;;67.50;33.70;;;;;;;2.45;58.63;98471.08;106074;1277;22551;-70
2022/03/03 09:47:25;;;;;;;76.40;33.90;;;;;;;2.46;58.41;98471.31;106155;1277;137618;-70
2022/03/03 09:49:52;;;;;;;67.50;31.90;;;;;;;2.46;58.24;98472.48;106031;1277;23794;-70
2022/03/03 09:52:19;;;;;;;61.20;29.70;;;;;;;2.45;57.56;98474.58;106075;1277;137765;-70
2022/03/03 09:54:57;;;;;;;69.80;32.40;;;;;;;2.42;57.57;98473.22;106042;1277;22563;-70
2022/03/03 09:57:24;;;;;;;67.10;33.50;;;;;;;2.43;57.87;98470.41;106203;1277;25380;-71
2022/03/03 09:59:57;;;;;;;70.40;32.60;;;;;;;2.46;57.98;98468.58;105775;1277;144508;-71
2022/03/03 10:02:23;;;;;;;66.20;31.10;;;;;;;2.52;57.87;98470.36;106134;1277;22570;-71
2022/03/03 10:04:55;;;;;;;58.00;28.10;;;;;;;2.57;57.45;98468.27;105992;1277;137659;-71
2022/03/03 10:07:24;;;;;;;68.50;32.30;;;;;;;2.61;57.22;98470.09;106020;1277;22557;-71
2022/03/03 10:10:10;;;;;;;64.70;32.10;;;;;;;2.63;56.92;98467.15;105765;1278;137864;-71
2022/03/03 10:12:45;;;;;;;67.40;31.40;;;;;;;2.64;57.00;98462.25;106309;1277;22550;-71
2022/03/03 10:15:13;;;;;;;55.00;26.80;;;;;;;2.64;56.76;98458.24;105898;1278;22885;-71
2022/03/03 10:17:43;;;;;;;52.40;23.80;;;;;;;2.62;56.20;98455.77;106044;1277;137705;-71
2022/03/03 10:20:10;;;;;;;67.40;30.70;;;;;;;2.60;55.89;98460.52;106037;1277;25302;-71
2022/03/03 10:22:46;;;;;;;65.20;30.80;;;;;;;2.62;56.21;98455.70;106105;1277;137831;-71
2022/03/03 10:25:26;;;;;;;40.20;21.70;;;;;;;2.74;56.30;98455.63;106164;1277;25499;-72
2022/03/03 10:27:52;;;;;;;29.30;16.20;;;;;;;2.92;53.97;98453.65;106023;1277;137744;-71
2022/03/03 10:30:19;;;;;;;35.90;17.30;;;;;;;3.06;51.71;98453.66;106083;1277;24341;-72
2022/03/03 10:32:46;;;;;;;34.10;18.90;;;;;;;3.21;52.56;98453.14;105994;1277;25319;-72
2022/03/03 10:35:15;;;;;;;34.10;18.30;;;;;;;3.38;51.89;98448.14;105912;1276;138248;-72
2022/03/03 10:37:43;;;;;;;39.40;20.70;;;;;;;3.53;51.13;98443.48;106338;1277;22555;-73
2022/03/03 10:40:15;;;;;;;36.40;19.30;;;;;;;3.65;50.18;98443.17;105950;1275;137887;-72
2022/03/03 10:42:48;;;;;;;42.60;20.50;;;;;;;3.76;49.88;98433.27;105927;1277;22563;-73
2022/03/03 10:45:19;;;;;;;37.90;18.60;;;;;;;3.88;49.88;98428.00;106102;1277;24344;-72
2022/03/03 10:48:06;;;;;;;34.40;19.90;;;;;;;4.01;49.30;98427.39;106199;1277;137769;-71
2022/03/03 10:50:49;;;;;;;31.40;17.10;;;;;;;4.12;48.65;98427.61;105995;1277;22546;-71
2022/03/03 10:53:18;;;;;;;33.30;17.60;;;;;;;4.20;48.43;98423.40;105924;1277;138182;-72
2022/03/03 10:56:08;;;;;;;34.00;17.50;;;;;;;4.25;48.08;98421.63;106034;1277;22676;-73
2022/03/03 10:58:44;;;;;;;32.50;17.90;;;;;;;4.30;46.60;98419.02;105611;1277;138202;-72
2022/03/03 11:01:10;;;;;;;30.30;15.70;;;;;;;4.27;46.03;98413.96;106081;1277;25336;-73
2022/03/03 11:03:37;;;;;;;32.80;16.60;;;;;;;4.27;45.44;98411.52;106108;1277;25382;-71
2022/03/03 11:06:04;;;;;;;33.40;15.90;;;;;;;4.31;46.33;98416.29;106047;1278;137480;-71
2022/03/03 11:08:30;;;;;;;28.80;16.30;;;;;;;4.42;45.90;98409.86;105962;1278;22956;-71
2022/03/03 11:11:11;;;;;;;31.90;16.70;;;;;;;4.52;45.67;98407.46;106121;1277;138442;-68
2022/03/03 11:13:38;;;;;;;28.60;15.90;;;;;;;4.62;45.10;98404.36;105955;1277;25315;-72
2022/03/03 11:16:07;;;;;;;24.60;13.10;;;;;;;4.72;44.60;98404.75;106093;1277;137777;-71